Warm Springs Summit, Nevada Weather observations

Data are for observation ending at time listed.
 Day   Time    Ave.   Ave.  Ave.  Vector   Max.   Stn.    Total    Solar   Ave.  
  of    of     Air    Rel.  Wind   Wind    Wind   Baro.  Precip.   Rad.    Soil  
Year   Day     Temp.  Hum.  Speed  Dir.    Gust   Pres.                    Temp. 
2017   (PST)    F      %     mph   deg.    mph     mb.     in.     W/m2     F   
------------------------------------------------------------------------------
  15   11:10   34.3    60    5.3   283      7.6   770.3    0.00     560    32.2
  15   11:20   32.5    62    4.7   290      6.8   770.2    0.00     567    32.2
  15   11:30   33.6    62    4.6   287      6.1   770.1    0.00     571    32.2
  15   11:40   33.1    61    5.1   268      6.8   770.0    0.00     574    32.2
  15   11:50   34.1    54    4.0   270      5.7   769.9    0.00     576    32.3
  15   12:00   35.6    50    3.7   262      5.1   769.8    0.00     575    32.3
  15   12:10   35.7    47    3.9   273      5.7   769.7    0.00     573    32.3
  15   12:20   35.9    45    5.0   276      6.7   769.6    0.00     569    32.4
  15   12:30   35.9    45    4.5   273      6.9   769.5    0.00     564    32.4
  15   12:40   36.4    43    4.5   265      6.9   769.4    0.00     556    32.4
  15   12:50   36.0    43    4.2   259      6.8   769.3    0.00     547    32.5
  15   13:00   37.1    44    5.5   231      8.5   769.4    0.00     535    32.5
  15   13:10   36.7    42    3.9   258      6.2   769.4    0.00     523    32.5
  15   13:20   38.5    44    3.4   223      5.6   769.3    0.00     509    32.5
  15   13:30   38.2    48    3.0   130      4.8   769.1    0.00     494    32.6
  15   13:40   37.5    48    3.2   127      5.3   769.0    0.00     477    32.4
  15   13:50   38.2    42    1.9   104      4.3   769.1    0.00     459    32.6
  15   14:00   38.3    43    2.7   114      4.6   769.2    0.00     434    32.5
  15   14:10   38.0    49    2.8   130      4.9   769.3    0.00     418    32.5
  15   14:20   37.8    54    4.7   158      6.5   769.4    0.00     394    32.7
  15   14:30   37.8    51    3.5   180      6.3   769.5    0.00     370    32.7
  15   14:40   38.2    47    4.4   181      7.1   769.5    0.00     345    32.7
  15   14:50   37.6    44    4.1   183      6.0   769.5    0.00     319    32.8
  15   15:00   37.6    46    2.4   185      6.3   769.5    0.00     292    32.8
  15   15:10   39.8    46    2.0   191      4.3   769.5    0.00     265    32.8
  15   15:20   38.1    52    1.9   196      4.6   769.6    0.00     237    32.9
  15   15:30   39.4    48    1.3   289      3.0   769.6    0.00     208    32.9
  15   15:40   37.5    52    1.8   287      3.5   769.7    0.00     179    32.9
  15   15:50   38.4    48    0.8   327      2.5   769.8    0.00     153    32.9
  15   16:00   37.5    54    1.6    97      4.0   769.8    0.00     119    32.9
  15   16:10   34.7    58    1.5   340      2.6   769.9    0.00      69    33.0
  15   16:20   33.6    59    2.4   353      4.4   770.0    0.00      40    33.0
  15   16:30   31.5    59    3.5   355      5.6   770.1    0.00      13    33.0
  15   16:40   31.1    55    3.1    21      5.9   770.1    0.00       6    33.0
  15   16:50   30.9    56    3.8    36      6.5   770.1    0.00       3    33.1
  15   17:00   30.4    58    3.8    31      6.2   770.1    0.00       1    33.1
  15   17:10   30.3    56    4.6    34      7.1   770.1    0.00       0    33.1
  15   17:20   30.4    56    5.4    40      7.1   770.0    0.00       0    33.1
  15   17:30   30.0    60    5.8    32      7.2   770.0    0.00       0    33.1
  15   17:40   30.1    56    5.8    35      7.3   770.0    0.00       0    33.2
  15   17:50   30.0    57    5.5    25      7.5   770.0    0.00       0    33.2
  15   18:00   29.6    55    5.9    12      7.3   770.1    0.00       0    33.2
  15   18:10   29.6    49    5.7    18      7.0   770.1    0.00       0    33.2
  15   18:20   29.6    48    5.0    14      6.5   770.2    0.00       0    33.2
  15   18:30   30.1    48    4.4     0      7.1   770.3    0.00       0    33.2
  15   18:40   30.5    51    4.2     5      5.4   770.3    0.00       0    33.3
  15   18:50   29.3    51    4.4    11      5.8   770.2    0.00       0    33.3
  15   19:00   29.0    53    4.3     4      5.2   770.2    0.00       0    33.3
  15   19:10   29.7    52    5.4   352      7.4   770.2    0.00       0    33.3
  15   19:20   31.2    53    5.7   339      7.3   770.2    0.00       0    33.3
  15   19:30   31.4    52    7.0   315      9.5   770.3    0.00       0    33.3
  15   19:40   30.9    54    5.5   308      8.4   770.3    0.00       0    33.3
  15   19:50   30.4    58    3.8   324      5.8   770.3    0.00       0    33.4
  15   20:00   30.3    58    3.9   353      5.9   770.2    0.00       0    33.4
  15   20:10   29.7    56    4.6   356      7.2   770.2    0.00       0    33.4
  15   20:20   29.8    54    4.5   348      6.8   770.3    0.00       0    33.4
  15   20:30   31.6    46    4.4   347      6.8   770.3    0.00       0    33.4
  15   20:40   31.6    45    3.3   358      5.4   770.4    0.00       0    33.4
  15   20:50   28.6    56    4.5     2      6.6   770.5    0.00       0    33.4
  15   21:00   27.1    60    4.5     6      5.6   770.6    0.00       0    33.4
  15   21:10   27.4    62    4.2   360      6.1   770.7    0.00       0    33.5
  15   21:20   28.2    59    4.9     0      6.5   770.8    0.00       0    33.5
  15   21:30   27.3    63    5.1     6      6.5   770.8    0.00       0    33.5
  15   21:40   27.0    65    5.9     9      7.5   770.8    0.00       0    33.5
  15   21:50   26.2    63    6.5     9      8.2   770.8    0.00       0    33.5
  15   22:00   25.9    62    6.1     8      8.2   771.0    0.00       0    33.5
  15   22:10   25.6    64    6.1    12      8.3   770.9    0.00       0    33.5
  15   22:20   25.1    69    5.9    19      8.6   770.9    0.00       0    33.5
  15   22:30   25.0    70    4.6    33      6.5   771.0    0.00       0    33.5
  15   22:40   24.8    71    4.5    48      5.7   770.9    0.00       0    33.5
  15   22:50   24.2    78    4.8    47      5.7   770.9    0.00       0    33.5
  15   23:00   24.0    76    5.3    39      7.0   770.9    0.00       0    33.6
  15   23:10   24.6    71    5.6    37      9.5   770.9    0.00       0    33.6
  15   23:20   24.5    71    2.2   347      5.6   771.1    0.00       0    33.6
  15   23:30   24.5    70    2.6   353      6.1   771.1    0.00       0    33.6
  15   23:40   24.7    68    6.0    13     10.8   771.0    0.00       0    33.6
  15   23:50   25.1    67    6.0     9      9.6   771.1    0.00       0    33.6
  16    0:00   24.9    69    5.4    12      8.2   771.1    0.00       0    33.6
  16    0:10   24.6    70    4.9    14      6.6   771.0    0.00       0    33.6
  16    0:20   24.0    73    5.0    10      7.2   771.0    0.00       0    33.6
  16    0:30   23.6    75    5.8    24      7.9   771.0    0.00       0    33.6
  16    0:40   24.4    67    6.1    34      8.2   771.1    0.00       0    33.6
  16    0:50   25.5    54    5.0    27      9.5   771.2    0.00       0    33.6
  16    1:00   25.6    52    4.9    34      6.4   771.2    0.00       0    33.6
  16    1:10   25.7    51    5.3    39      7.9   771.2    0.00       0    33.7
  16    1:20   25.4    51    4.6    30      7.6   771.3    0.00       0    33.7
  16    1:30   25.5    45    2.0     8      5.0   771.3    0.00       0    33.7
  16    1:40   25.2    48    4.5     2      6.4   771.3    0.00       0    33.7
  16    1:50   25.6    43    4.5   358      8.4   771.2    0.00       0    33.7
  16    2:00   25.2    45    3.2    11      6.6   771.2    0.00       0    33.7
  16    2:10   24.9    46    4.9     4      7.9   771.1    0.00       0    33.7
  16    2:20   25.2    44    4.5     1      8.6   771.1    0.00       0    33.7
  16    2:30   25.4    45    2.9     5      6.6   771.2    0.00       0    33.7
  16    2:40   25.1    48    3.1    11      4.9   771.2    0.00       0    33.7
  16    2:50   25.0    49    3.3   348      4.5   771.1    0.00       0    33.7
  16    3:00   24.8    51    4.1   356      5.9   771.0    0.00       0    33.7
  16    3:10   24.6    53    4.1   354      5.7   770.9    0.00       0    33.7
  16    3:20   24.6    52    3.3   350      5.4   771.0    0.00       0    33.7
  16    3:30   24.6    50    2.1     7      3.0   770.9    0.00       0    33.7
  16    3:40   24.8    52    2.0    69      2.5   770.9    0.00       0    33.7
  16    3:50   24.5    57    2.6    60      4.6   770.9    0.00       0    33.7
  16    4:00   23.6    60    4.3    59      6.4   771.0    0.00       0    33.7
  16    4:10   22.7    64    4.8    44      6.6   770.9    0.00       0    33.7
  16    4:20   22.1    66    5.2    36      7.3   770.9    0.00       0    33.7
  16    4:30   22.0    65    5.0    33      9.0   771.0    0.00       0    33.7
  16    4:40   21.8    64    5.6    39      9.4   771.0    0.00       0    33.7
  16    4:50   21.3    67    3.9    20      8.3   771.0    0.00       0    33.7
  16    5:00   20.8    71    4.6    37      8.3   771.1    0.00       0    33.7
  16    5:10   20.7    68    3.4    17      6.9   771.2    0.00       0    33.7
  16    5:20   20.6    66    3.1    15      8.5   771.2    0.00       0    33.7
  16    5:30   20.8    60    2.5   354      5.7   771.3    0.00       0    33.7
  16    5:40   21.1    58    3.4    10      6.6   771.3    0.00       0    33.7
  16    5:50   20.9    58    5.5    17      9.8   771.4    0.00       0    33.7
  16    6:00   20.7    61    6.3    20     10.5   771.4    0.00       0    33.6
  16    6:10   20.1    60    5.9    22      9.8   771.3    0.00       0    33.6
  16    6:20   19.8    58    6.7    26     10.8   771.3    0.00       0    33.6
  16    6:30   19.5    60    7.5    22     13.1   771.3    0.00       0    33.6
  16    6:40   19.0    58    5.1    16      9.9   771.4    0.00       1    33.6
  16    6:50   18.8    58    5.4    14      9.4   771.5    0.00       3    33.5
  16    7:00   18.8    56    6.1    24      9.5   771.6    0.00       6    33.5
  16    7:10   19.8    51    6.7    34      9.7   771.7    0.00      16    33.5
  16    7:20   20.2    50    6.0    30      9.0   771.7    0.00      37    33.5
  16    7:30   20.1    55    5.8    27      8.5   771.8    0.00      65    33.4
  16    7:40   20.2    54    7.5    46     11.4   771.8    0.00     100    33.4
  16    7:50   20.1    55    7.1    48     12.6   771.9    0.00     138    33.3
  16    8:00   20.8    52    4.9    37      7.6   772.1    0.00     168    33.3
  16    8:10   21.7    49    4.2    30      6.6   772.2    0.00     196    33.3
  16    8:20   22.6    46    3.0    18      6.3   772.3    0.00     224    33.2
  16    8:30   24.7    40    2.2     5      6.1   772.3    0.00     252    33.2
  16    8:40   24.2    42    3.5    21      6.4   772.4    0.00     281    33.1
  16    8:50   23.9    41    4.1    30      7.0   772.5    0.00     309    33.0
  16    9:00   23.5    42    4.2    32      7.7   772.5    0.00     336    33.0
  16    9:10   24.9    40    3.1    22      7.3   772.7    0.00     361    32.9
  16    9:20   28.2    31    2.1    12      5.0   772.8    0.00     387    32.9
  16    9:30   28.5    30    2.8    43      4.6   773.0    0.00     410    32.8
  16    9:40   28.1    30    4.0    38      7.3   773.1    0.00     433    32.7
  16    9:50   27.8    34    3.8    58      7.5   773.1    0.00     454    32.8
  16   10:00   27.6    35    3.5    61      5.9   773.2    0.00     473    32.7
  16   10:10   25.3    38    4.2    61      5.4   773.2    0.00     491    32.7
  16   10:20   25.5    39    4.4    58      6.9   773.2    0.00     507    32.7
  16   10:30   24.3    45    4.5    48      6.5   773.1    0.00     522    32.7
  16   10:40   23.6    48    4.0    45      6.2   773.1    0.00     536    32.7
  16   10:50   24.9    42    4.3    72      7.6   772.9    0.00     547    32.7
  16   11:00   26.3    36    5.5    78      8.6   772.9    0.00     558    32.7

Return to Warm Springs Summit, Nevada graphs page.


Western Regional Climate Center,wrcc@dri.edu